Time;durP1;ratioP1;P1;durP2;ratioP2;P2;SDS_P1;SDS_P2;PMS_P1;PMS_P2;Temp;Humidity;BMP_temperature;BMP_pressure;BME280_temperature;BME280_humidity;BME280_pressure;Samples;Min_cycle;Max_cycle;Signal;HPM_P1;HPM_P2
2021/06/09 00:00:51;;;;;;;4.80;4.30;;;;;;;16.88;84.57;100958.09;5072514;28;20025;-77
2021/06/09 00:03:18;;;;;;;3.95;3.55;;;;;;;16.92;83.86;100962.06;5074226;28;20029;-77
2021/06/09 00:05:45;;;;;;;3.90;3.50;;;;;;;16.95;84.19;100958.22;5073330;28;20026;-77
2021/06/09 00:08:10;;;;;;;5.05;4.55;;;;;;;17.02;83.22;100963.63;5071644;28;20029;-77
2021/06/09 02:48:17;;;;;;;7.22;6.53;;;;;;;16.19;88.36;100976.03;5073887;28;19927;-77
2021/06/09 02:50:43;;;;;;;6.70;6.00;;;;;;;16.11;88.60;100974.22;5076734;28;20546;-77
2021/06/09 02:53:29;;;;;;;5.55;5.05;;;;;;;16.07;88.32;100970.25;5082710;28;20060;-77
2021/06/09 02:56:23;;;;;;;5.40;4.90;;;;;;;16.04;88.53;100967.94;5077815;28;20033;-77
2021/06/09 02:59:03;;;;;;;5.70;5.20;;;;;;;15.99;88.53;100967.63;5072002;28;20073;-77
2021/06/09 03:01:39;;;;;;;5.18;4.68;;;;;;;15.96;88.76;100974.16;5084090;28;20033;-77
2021/06/09 03:04:22;;;;;;;6.45;5.75;;;;;;;15.94;88.58;100976.16;5088818;28;20163;-77
2021/06/09 03:07:46;;;;;;;5.50;4.60;;;;;;;15.90;88.26;100972.22;5073626;28;20032;-77
2021/06/09 03:10:30;;;;;;;5.97;5.38;;;;;;;15.85;88.63;100971.88;5032364;28;20045;-77
2021/06/09 03:13:07;;;;;;;5.97;5.38;;;;;;;15.79;88.88;100976.09;5087872;28;20095;-77
2021/06/09 03:16:10;;;;;;;5.40;4.90;;;;;;;15.78;88.96;100966.44;5094345;28;20028;-77
2021/06/09 03:18:40;;;;;;;5.40;4.90;;;;;;;15.78;89.16;100970.91;5062324;28;20036;-77
2021/06/09 03:21:10;;;;;;;5.65;5.10;;;;;;;15.83;88.58;100968.59;5082393;28;20388;-77
2021/06/09 03:23:46;;;;;;;6.95;5.50;;;;;;;15.81;88.53;100971.41;5092444;28;20083;-77
2021/06/09 03:26:19;;;;;;;9.95;7.00;;;;;;;15.75;88.82;100961.44;5093777;28;20036;-77
2021/06/09 03:28:58;;;;;;;8.73;5.82;;;;;;;15.75;88.62;100963.28;5086147;28;20024;-77
2021/06/09 03:31:30;;;;;;;8.65;6.88;;;;;;;15.71;88.97;100965.47;5094220;28;20043;-77
2021/06/09 03:33:58;;;;;;;9.70;7.03;;;;;;;15.66;89.13;100965.97;5087283;28;20024;-77
2021/06/09 03:36:31;;;;;;;11.20;7.90;;;;;;;15.62;89.36;100963.81;5092227;28;20369;-77
2021/06/09 03:39:02;;;;;;;10.90;8.48;;;;;;;15.57;89.44;100961.69;5087767;28;20026;-77
2021/06/09 03:41:41;;;;;;;11.82;8.63;;;;;;;15.54;89.39;100962.03;5085736;28;20059;-77
2021/06/09 03:44:08;;;;;;;9.98;7.32;;;;;;;15.53;89.38;100967.53;5083144;28;20627;-77
2021/06/09 03:46:37;;;;;;;9.82;7.45;;;;;;;15.50;89.46;100964.19;5085519;28;20082;-77
2021/06/09 03:49:08;;;;;;;11.30;7.43;;;;;;;15.52;89.85;100972.03;5081305;28;20090;-77
2021/06/09 03:51:38;;;;;;;8.80;6.60;;;;;;;15.54;89.72;100970.03;5083598;28;20500;-77
2021/06/09 03:54:04;;;;;;;10.27;6.78;;;;;;;15.64;88.46;100967.16;5094080;28;20086;-77
2021/06/09 03:56:32;;;;;;;7.40;5.82;;;;;;;15.67;89.11;100972.94;5077235;28;20402;-77
2021/06/09 03:59:00;;;;;;;6.50;5.40;;;;;;;15.70;89.12;100969.94;5088536;28;20431;-77
2021/06/09 04:01:30;;;;;;;7.85;6.85;;;;;;;15.75;88.92;100971.28;5094076;28;20032;-77
2021/06/09 04:03:58;;;;;;;6.90;6.20;;;;;;;15.82;88.28;100969.56;5096254;28;20055;-77
2021/06/09 04:06:25;;;;;;;5.25;4.60;;;;;;;15.86;88.76;100966.38;5098772;28;20172;-77
2021/06/09 04:08:51;;;;;;;6.30;5.50;;;;;;;15.85;89.03;100966.53;5096125;28;20458;-77
2021/06/09 04:11:18;;;;;;;6.28;5.68;;;;;;;15.85;89.24;100972.72;5094223;28;20081;-77
2021/06/09 04:13:44;;;;;;;6.85;6.15;;;;;;;15.88;88.70;100969.72;5091621;28;20425;-77
2021/06/09 04:16:12;;;;;;;6.85;6.15;;;;;;;15.90;89.58;100969.53;5088520;28;20025;-77
2021/06/09 04:18:42;;;;;;;7.18;6.40;;;;;;;15.91;89.65;100974.69;5090235;28;20021;-77
2021/06/09 04:21:10;;;;;;;9.32;8.38;;;;;;;15.89;89.35;100974.03;5088059;28;20032;-77
2021/06/09 04:23:36;;;;;;;8.80;7.90;;;;;;;15.91;88.83;100977.34;5093707;28;20165;-77
2021/06/09 04:26:02;;;;;;;8.65;7.75;;;;;;;15.93;89.54;100970.00;5093617;28;20032;-76
2021/06/09 04:28:27;;;;;;;11.07;9.80;;;;;;;16.07;88.19;100976.44;5084708;28;20031;-77
2021/06/09 04:30:53;;;;;;;12.85;10.85;;;;;;;16.18;87.94;100980.50;5092954;28;20040;-77
2021/06/09 04:33:19;;;;;;;11.27;10.07;;;;;;;16.21;87.88;100974.84;5084521;28;20523;-77
2021/06/09 04:35:46;;;;;;;10.63;9.52;;;;;;;16.29;87.73;100973.94;5084494;28;20032;-77
2021/06/09 04:38:16;;;;;;;11.88;10.45;;;;;;;16.35;87.47;100976.72;5092765;28;20030;-77
2021/06/09 04:40:43;;;;;;;10.32;9.27;;;;;;;16.38;87.39;100978.22;5092517;28;20085;-77
2021/06/09 04:43:09;;;;;;;10.93;9.00;;;;;;;16.41;87.46;100972.50;5086006;28;20470;-77
2021/06/09 04:45:35;;;;;;;8.80;7.13;;;;;;;16.43;87.90;100973.16;5085067;28;20039;-77
2021/06/09 04:48:01;;;;;;;7.65;6.95;;;;;;;16.45;88.36;100968.47;5080050;28;20033;-77
2021/06/09 04:50:27;;;;;;;6.65;5.95;;;;;;;16.54;87.99;100970.06;5078576;28;20058;-77
2021/06/09 04:52:53;;;;;;;6.65;5.78;;;;;;;16.64;87.75;100975.16;5077226;28;20028;-77
2021/06/09 04:55:20;;;;;;;7.35;6.65;;;;;;;16.75;87.55;100972.03;5085287;28;20389;-77
2021/06/09 04:57:46;;;;;;;9.18;8.27;;;;;;;16.79;87.34;100977.06;5070792;28;20512;-77
2021/06/09 05:00:14;;;;;;;10.05;8.60;;;;;;;16.82;87.18;100974.03;5081946;28;20085;-77
2021/06/09 05:02:40;;;;;;;9.77;8.77;;;;;;;16.83;87.15;100971.19;5098817;28;20025;-77
2021/06/09 05:05:06;;;;;;;8.52;7.72;;;;;;;16.87;87.21;100968.97;5088556;28;20024;-77
2021/06/09 05:07:31;;;;;;;11.35;9.75;;;;;;;17.04;86.46;100978.47;5100286;28;20024;-77
2021/06/09 05:09:58;;;;;;;12.38;9.95;;;;;;;17.13;85.60;100976.53;5103492;28;20070;-77
2021/06/09 05:12:33;;;;;;;10.32;9.23;;;;;;;17.21;84.85;100973.78;5102696;28;20063;-78
2021/06/09 05:15:08;;;;;;;9.73;7.82;;;;;;;17.26;85.49;100973.25;5086699;28;20036;-78
2021/06/09 05:17:44;;;;;;;9.80;8.82;;;;;;;17.34;84.36;100967.78;5092548;28;20048;-77
2021/06/09 05:20:32;;;;;;;8.18;7.32;;;;;;;17.37;84.83;100962.06;5089739;28;20035;-77
2021/06/09 05:23:18;;;;;;;8.88;7.97;;;;;;;17.45;85.81;100970.00;5093788;28;20056;-78
2021/06/09 05:25:44;;;;;;;8.95;8.05;;;;;;;17.53;84.66;100975.22;5103583;28;20043;-78
2021/06/09 05:28:13;;;;;;;11.32;8.98;;;;;;;17.53;84.16;100982.44;5096815;28;20040;-78
2021/06/09 05:30:40;;;;;;;10.20;8.75;;;;;;;17.52;84.49;100983.44;5098690;28;20040;-77
2021/06/09 05:33:07;;;;;;;9.07;8.07;;;;;;;17.65;84.88;100980.09;5096069;28;20564;-77
2021/06/09 05:35:33;;;;;;;10.00;8.38;;;;;;;17.76;84.26;100980.47;5093533;28;20036;-77
2021/06/09 05:37:59;;;;;;;9.40;8.40;;;;;;;17.77;83.90;100976.75;5092446;28;20123;-77
2021/06/09 05:40:25;;;;;;;10.95;8.68;;;;;;;17.93;82.70;100978.41;5093731;28;20271;-77
2021/06/09 05:42:51;;;;;;;9.00;8.10;;;;;;;18.02;83.45;100976.47;5076931;28;20031;-77
2021/06/09 05:45:30;;;;;;;8.45;7.53;;;;;;;18.17;82.92;100984.44;5094121;28;20067;-76
2021/06/09 05:47:56;;;;;;;8.80;7.50;;;;;;;18.20;82.42;100989.38;5081834;28;20043;-77
2021/06/09 05:50:24;;;;;;;8.80;7.93;;;;;;;18.16;82.97;100983.59;5088641;28;20115;-77
2021/06/09 05:52:54;;;;;;;7.60;6.80;;;;;;;18.30;83.20;100984.53;5077026;28;20108;-77
2021/06/09 05:55:22;;;;;;;6.57;5.80;;;;;;;18.55;82.46;100985.00;5076880;28;20064;-77
2021/06/09 05:57:49;;;;;;;5.00;4.50;;;;;;;18.93;82.36;100983.88;5080741;28;20048;-77
2021/06/09 06:00:16;;;;;;;6.18;5.57;;;;;;;19.24;82.81;100992.31;5077215;28;20093;-77
2021/06/09 06:02:42;;;;;;;8.40;7.60;;;;;;;19.49;77.45;100991.81;5073502;28;20501;-77
2021/06/09 06:05:09;;;;;;;8.57;7.68;;;;;;;19.71;78.67;100989.88;5077690;28;20043;-77
2021/06/09 06:07:35;;;;;;;7.30;6.53;;;;;;;19.97;77.62;100988.31;5074231;28;20029;-77
2021/06/09 06:10:03;;;;;;;7.70;6.90;;;;;;;20.02;75.20;100997.44;5091443;28;20055;-77
2021/06/09 06:12:29;;;;;;;8.57;6.75;;;;;;;20.18;77.97;100998.06;5088902;28;20507;-77
2021/06/09 06:14:55;;;;;;;8.63;7.72;;;;;;;20.27;77.02;100994.16;5090732;28;20047;-77
2021/06/09 06:17:20;;;;;;;9.55;7.45;;;;;;;20.36;76.81;100998.31;5090484;28;20063;-77
2021/06/09 06:19:49;;;;;;;8.27;6.93;;;;;;;20.52;77.27;101000.59;5082100;28;20031;-77
2021/06/09 06:22:15;;;;;;;7.40;5.72;;;;;;;20.79;76.30;101001.47;5074640;28;20115;-77
2021/06/09 06:24:43;;;;;;;8.27;7.13;;;;;;;21.00;73.36;100994.22;5081034;28;20115;-77
2021/06/09 06:27:10;;;;;;;5.57;4.97;;;;;;;21.28;75.23;100993.91;5090933;28;20031;-76
2021/06/09 06:29:37;;;;;;;5.60;5.00;;;;;;;21.70;76.15;100996.31;5089152;28;20167;-77
2021/06/09 06:32:06;;;;;;;4.35;3.90;;;;;;;21.93;73.37;100990.38;5084788;28;20064;-77
2021/06/09 06:34:34;;;;;;;5.78;5.18;;;;;;;21.95;71.14;100985.59;5087503;28;20265;-77
2021/06/09 06:37:01;;;;;;;6.50;5.60;;;;;;;21.67;71.39;100980.59;5090141;28;20474;-76
2021/06/09 06:39:27;;;;;;;6.40;4.90;;;;;;;21.88;73.30;100988.34;5090425;28;20028;-77
2021/06/09 06:41:53;;;;;;;9.73;7.47;;;;;;;22.32;71.29;100991.22;5086702;28;20097;-77
2021/06/09 06:44:18;;;;;;;7.05;6.35;;;;;;;22.30;71.63;100986.03;5086292;28;20052;-77
2021/06/09 06:46:48;;;;;;;7.03;5.85;;;;;;;22.69;69.65;100990.31;5089209;28;20032;-76
2021/06/09 06:49:15;;;;;;;6.18;4.80;;;;;;;23.00;68.56;100985.06;5077886;28;20036;-77
2021/06/09 06:51:41;;;;;;;7.15;6.45;;;;;;;23.52;72.21;100980.13;5089569;28;20032;-75
2021/06/09 06:54:06;;;;;;;7.13;5.75;;;;;;;23.69;75.33;100980.31;5089421;28;20035;-77
2021/06/09 06:56:34;;;;;;;5.43;4.90;;;;;;;23.91;76.49;100988.81;5072009;28;20508;-75
2021/06/09 06:58:59;;;;;;;5.65;5.03;;;;;;;24.08;68.21;100991.69;5067292;28;20036;-75
2021/06/09 07:01:30;;;;;;;6.22;5.40;;;;;;;24.31;68.73;100983.66;5067689;28;20029;-76
2021/06/09 07:03:57;;;;;;;5.10;4.40;;;;;;;24.84;70.01;100987.38;5069985;28;20112;-76
2021/06/09 07:06:22;;;;;;;5.75;5.15;;;;;;;25.21;63.48;100987.94;5067920;28;20490;-76
2021/06/09 07:08:49;;;;;;;5.13;4.15;;;;;;;25.33;61.98;100987.94;5069969;28;20036;-76
2021/06/09 07:11:16;;;;;;;4.47;4.05;;;;;;;25.60;66.40;100985.53;5069449;28;20031;-76
2021/06/09 07:13:43;;;;;;;5.10;4.60;;;;;;;25.63;63.40;100990.44;5069916;28;20037;-76
2021/06/09 07:16:10;;;;;;;5.88;5.25;;;;;;;25.50;61.98;100990.72;5054537;28;20033;-76
2021/06/09 07:18:43;;;;;;;7.43;5.68;;;;;;;25.48;59.55;100994.72;5058108;28;20036;-76
2021/06/09 07:21:09;;;;;;;8.30;5.50;;;;;;;25.53;58.78;100989.41;5056597;28;20353;-76
2021/06/09 07:23:34;;;;;;;6.80;6.07;;;;;;;25.42;58.15;100993.81;5067457;28;20435;-76
2021/06/09 07:26:00;;;;;;;7.72;6.93;;;;;;;25.71;59.32;100993.84;5069799;28;20041;-76
2021/06/09 07:28:26;;;;;;;6.15;5.55;;;;;;;25.67;58.65;100992.66;5069108;28;20032;-76
2021/06/09 07:30:53;;;;;;;6.38;5.78;;;;;;;25.47;57.66;100991.19;5068644;28;20093;-76
2021/06/09 07:33:19;;;;;;;5.13;4.63;;;;;;;25.61;59.77;100989.88;5061149;28;20108;-76
2021/06/09 07:35:44;;;;;;;6.20;5.60;;;;;;;25.94;59.69;100998.38;5069067;28;20589;-76
2021/06/09 07:38:19;;;;;;;6.30;5.30;;;;;;;26.21;59.78;100999.41;5068849;28;20374;-76
2021/06/09 07:40:49;;;;;;;6.40;5.78;;;;;;;26.26;58.39;100995.97;5068851;28;20047;-76
2021/06/09 07:43:19;;;;;;;7.47;5.70;;;;;;;26.16;56.18;101002.03;5063554;28;20047;-76
2021/06/09 07:45:48;;;;;;;6.95;5.95;;;;;;;26.18;56.60;100999.09;5084760;28;20036;-76
2021/06/09 07:48:17;;;;;;;7.47;6.78;;;;;;;26.28;58.13;100997.38;5078771;28;20036;-76
2021/06/09 07:50:55;;;;;;;6.60;5.90;;;;;;;26.57;57.29;100996.50;5090915;28;20043;-76
2021/06/09 07:53:24;;;;;;;7.30;6.28;;;;;;;26.31;55.52;101003.38;5089148;28;20088;-76
2021/06/09 07:55:50;;;;;;;7.28;6.57;;;;;;;26.18;57.93;100999.91;5066361;28;20040;-76
2021/06/09 07:58:20;;;;;;;5.93;5.32;;;;;;;26.72;57.85;100999.47;5073828;28;20025;-76
2021/06/09 08:00:47;;;;;;;6.55;5.95;;;;;;;26.87;54.20;100994.25;5092030;28;20112;-76
2021/06/09 08:03:12;;;;;;;7.28;5.38;;;;;;;27.32;56.59;100996.00;5094378;28;20035;-77
2021/06/09 08:05:40;;;;;;;8.20;6.70;;;;;;;27.68;55.54;100999.16;5093014;28;20032;-77
2021/06/09 08:08:06;;;;;;;6.80;5.93;;;;;;;27.62;54.63;101002.88;5092936;28;20032;-76
2021/06/09 08:10:32;;;;;;;6.80;5.78;;;;;;;28.07;53.93;101003.66;5093794;28;20030;-76
2021/06/09 08:12:57;;;;;;;8.27;7.45;;;;;;;28.11;52.99;100994.72;5093239;28;20120;-76
2021/06/09 08:15:23;;;;;;;7.90;7.10;;;;;;;28.12;51.47;100999.09;5085082;28;20575;-76
2021/06/09 08:17:49;;;;;;;6.60;6.00;;;;;;;28.32;52.14;101003.09;5092226;28;20024;-76
2021/06/09 08:20:20;;;;;;;7.47;6.68;;;;;;;28.32;52.76;101003.09;5083447;28;20122;-76
2021/06/09 08:22:46;;;;;;;;;;;;;;;28.56;51.22;101001.69;5092151;28;20028;-77
2021/06/09 08:25:14;;;;;;;7.18;6.22;;;;;;;28.73;51.78;100998.81;5091295;28;20354;-76
2021/06/09 08:27:40;;;;;;;7.75;6.72;;;;;;;28.97;50.56;101004.69;5091150;28;20065;-76
2021/06/09 08:30:07;;;;;;;8.30;7.50;;;;;;;29.01;49.86;101000.34;5092170;28;20035;-76
2021/06/09 08:32:33;;;;;;;6.93;6.22;;;;;;;29.21;50.33;101002.38;5089743;28;20428;-76
2021/06/09 08:34:58;;;;;;;7.07;6.38;;;;;;;29.23;51.28;101004.84;5085196;28;20028;-76
2021/06/09 08:37:26;;;;;;;7.55;6.22;;;;;;;29.45;50.19;100996.50;5091923;28;20078;-76
2021/06/09 08:39:52;;;;;;;7.88;6.82;;;;;;;29.29;50.54;100997.53;5092134;28;20036;-76
2021/06/09 08:42:18;;;;;;;6.60;6.00;;;;;;;29.40;50.15;101000.03;5075867;28;20386;-76
2021/06/09 08:44:47;;;;;;;8.30;6.65;;;;;;;29.51;48.00;101000.91;5091285;28;20124;-76
2021/06/09 08:47:14;;;;;;;8.18;6.88;;;;;;;29.55;48.03;100999.25;5076449;28;20032;-76
2021/06/09 08:49:40;;;;;;;6.13;5.47;;;;;;;30.07;48.22;101002.97;5082462;28;20046;-76
2021/06/09 08:52:09;;;;;;;6.15;5.55;;;;;;;30.43;46.35;100994.81;5091256;28;20119;-76
2021/06/09 08:54:37;;;;;;;6.28;5.57;;;;;;;30.50;45.05;101000.81;5090782;28;20028;-77
2021/06/09 08:57:02;;;;;;;5.90;5.40;;;;;;;30.33;46.55;101000.28;5076940;28;20089;-76
2021/06/09 08:59:28;;;;;;;5.80;5.20;;;;;;;30.44;51.38;100997.28;5091896;28;20032;-76
2021/06/09 09:01:54;;;;;;;5.55;4.97;;;;;;;30.43;45.72;100995.63;5091757;28;20024;-76
2021/06/09 09:04:19;;;;;;;5.15;4.65;;;;;;;30.39;49.97;100999.19;5091542;28;20028;-77
2021/06/09 09:06:45;;;;;;;6.60;5.70;;;;;;;30.22;48.81;100999.44;5090956;28;20028;-77
2021/06/09 09:09:10;;;;;;;6.28;5.60;;;;;;;29.57;49.28;101005.25;5090492;28;20492;-76
2021/06/09 09:11:39;;;;;;;7.38;6.45;;;;;;;29.14;47.84;101006.44;5091337;28;20032;-76
2021/06/09 09:14:04;;;;;;;6.65;5.95;;;;;;;28.84;48.95;101005.16;5091510;28;20035;-76
2021/06/09 09:16:29;;;;;;;7.00;6.30;;;;;;;28.57;49.58;100997.88;5082652;28;20497;-76
2021/06/09 09:19:01;;;;;;;6.15;5.55;;;;;;;28.46;50.27;101007.06;5087265;28;20531;-76
2021/06/09 09:21:39;;;;;;;5.38;4.88;;;;;;;28.40;51.39;100996.34;5079818;28;20120;-76
2021/06/09 09:24:07;;;;;;;6.50;5.75;;;;;;;28.44;51.15;101001.00;5085269;28;20036;-77
2021/06/09 09:26:34;;;;;;;7.20;6.10;;;;;;;28.49;52.09;100994.81;5080160;28;20039;-76
2021/06/09 09:29:18;;;;;;;5.57;5.07;;;;;;;28.57;51.14;100997.88;5083006;28;20030;-76
2021/06/09 09:31:57;;;;;;;6.15;5.55;;;;;;;28.44;50.91;100997.47;5082598;28;20040;-76
2021/06/09 09:34:28;;;;;;;5.40;4.90;;;;;;;28.72;50.47;101002.63;5087992;28;20032;-76
2021/06/09 09:37:14;;;;;;;4.80;4.30;;;;;;;28.75;49.40;101001.28;5086839;28;20401;-76
2021/06/09 09:39:42;;;;;;;5.53;5.03;;;;;;;28.79;48.22;100994.22;5079343;28;20028;-76
2021/06/09 09:42:20;;;;;;;5.10;4.60;;;;;;;28.60;47.18;100991.09;5071358;28;20056;-76
2021/06/09 09:44:47;;;;;;;6.20;5.60;;;;;;;28.53;48.26;100995.94;5090007;28;20028;-76
2021/06/09 09:47:31;;;;;;;6.43;5.82;;;;;;;28.42;48.50;101011.34;5083942;28;20043;-76
2021/06/09 09:49:56;;;;;;;5.18;4.68;;;;;;;28.43;48.83;100990.38;5076534;28;20117;-76
2021/06/09 09:52:21;;;;;;;6.32;5.63;;;;;;;28.48;48.34;100983.09;5090997;28;20032;-76
2021/06/09 09:54:47;;;;;;;5.47;4.90;;;;;;;28.33;49.69;100991.13;5088331;28;20027;-76
2021/06/09 09:57:14;;;;;;;6.15;5.55;;;;;;;28.54;48.49;100984.78;5077461;28;20396;-76
2021/06/09 09:59:41;;;;;;;6.10;5.50;;;;;;;28.52;48.08;100986.13;5090899;28;20037;-76
2021/06/09 10:02:17;;;;;;;5.57;4.88;;;;;;;28.48;49.80;100979.56;5082159;28;20039;-76
2021/06/09 10:04:49;;;;;;;5.20;4.70;;;;;;;28.22;48.51;100987.50;5091251;28;20031;-76
2021/06/09 10:07:15;;;;;;;6.68;5.45;;;;;;;28.32;48.39;100978.63;5091009;28;20036;-76
2021/06/09 10:09:43;;;;;;;5.70;4.97;;;;;;;28.34;48.62;100971.84;5082921;28;20028;-76
2021/06/09 10:12:16;;;;;;;6.50;4.82;;;;;;;28.55;48.11;100964.66;5095041;28;20036;-76
2021/06/09 10:14:48;;;;;;;6.35;5.75;;;;;;;28.70;47.06;100971.28;5091584;28;20123;-76
2021/06/09 10:17:18;;;;;;;6.45;5.80;;;;;;;28.56;46.50;100970.94;5090974;28;20196;-76
2021/06/09 10:19:46;;;;;;;6.55;5.28;;;;;;;28.59;46.73;100963.06;5074179;28;20060;-76
2021/06/09 10:22:15;;;;;;;19.40;17.73;;;;;;;28.38;47.29;100972.13;5089125;28;20500;-76
2021/06/09 10:24:44;;;;;;;7.43;6.57;;;;;;;28.52;46.58;100962.47;5090323;28;20070;-76
2021/06/09 10:27:09;;;;;;;5.57;5.07;;;;;;;28.44;50.98;100962.94;5090810;28;20035;-76
2021/06/09 10:29:35;;;;;;;6.75;6.05;;;;;;;28.55;48.72;100967.38;5090091;28;20433;-76
2021/06/09 10:32:10;;;;;;;7.95;6.35;;;;;;;28.04;48.50;100972.38;5091523;28;20036;-76
2021/06/09 10:34:36;;;;;;;6.93;6.22;;;;;;;27.73;50.24;100980.19;5081675;28;20028;-76
2021/06/09 10:37:05;;;;;;;8.13;6.93;;;;;;;27.81;49.56;100972.66;5089882;28;20032;-76
2021/06/09 10:39:33;;;;;;;7.30;5.95;;;;;;;28.10;48.58;100975.94;5090383;28;20400;-76
2021/06/09 10:42:04;;;;;;;7.18;6.47;;;;;;;28.05;49.54;100970.47;5085869;28;20039;-76
2021/06/09 10:44:31;;;;;;;;;;;;;;;28.04;51.91;100972.38;5087594;28;20326;-76
2021/06/09 10:46:58;;;;;;;6.50;5.82;;;;;;;28.16;50.27;100964.06;5086582;28;19913;-75
2021/06/09 10:49:24;;;;;;;6.80;6.10;;;;;;;28.36;48.46;100975.13;5076884;28;20123;-75
2021/06/09 10:51:53;;;;;;;6.20;5.60;;;;;;;28.34;50.17;100976.44;5089747;28;20497;-76
2021/06/09 10:54:21;;;;;;;6.70;6.00;;;;;;;28.48;48.27;100977.66;5089953;28;20040;-76
2021/06/09 10:56:48;;;;;;;6.90;6.20;;;;;;;28.29;47.48;100968.22;5073602;28;20028;-76
2021/06/09 10:59:19;;;;;;;6.68;5.30;;;;;;;28.11;47.49;100977.59;5082073;28;20028;-76
2021/06/09 11:01:45;;;;;;;;;;;;;;;28.27;47.79;100976.66;5079042;28;20044;-76
2021/06/09 11:04:11;;;;;;;5.70;5.20;;;;;;;28.52;47.76;100970.63;5083072;28;20029;-76
2021/06/09 11:06:46;;;;;;;5.72;5.20;;;;;;;28.62;48.17;100971.78;5087467;28;20032;-76
2021/06/09 11:09:17;;;;;;;6.53;5.68;;;;;;;28.44;45.80;100973.81;5076449;28;20039;-76
2021/06/09 11:12:04;;;;;;;8.13;6.53;;;;;;;28.14;46.47;100971.66;5089347;28;20558;-76
2021/06/09 11:14:29;;;;;;;5.95;5.35;;;;;;;28.08;47.91;100964.50;5089285;28;20464;-76
2021/06/09 11:16:55;;;;;;;6.00;5.30;;;;;;;28.25;45.73;100962.50;5081496;28;20051;-75
2021/06/09 11:19:38;;;;;;;6.78;5.57;;;;;;;28.22;46.50;100967.63;5075300;28;20060;-76
2021/06/09 11:22:20;;;;;;;5.68;5.00;;;;;;;28.36;46.56;100950.63;5089110;28;20043;-76
2021/06/09 11:25:06;;;;;;;7.50;6.22;;;;;;;28.29;45.53;100952.75;5093031;28;20032;-76
2021/06/09 11:27:31;;;;;;;5.20;4.70;;;;;;;28.22;45.17;100959.47;5082581;28;20536;-75
2021/06/09 11:29:57;;;;;;;6.47;5.13;;;;;;;28.08;44.61;100965.34;5086287;28;20039;-76
2021/06/09 11:32:22;;;;;;;5.60;5.07;;;;;;;28.21;44.03;100961.38;5090950;28;20028;-75
2021/06/09 11:34:54;;;;;;;6.25;5.63;;;;;;;28.00;44.80;100965.81;5085212;28;20514;-75
2021/06/09 11:37:20;;;;;;;6.03;5.43;;;;;;;27.86;45.41;100953.69;5085350;28;20063;-75
2021/06/09 11:40:01;;;;;;;5.50;4.85;;;;;;;27.84;44.82;100948.53;5093517;28;20055;-75
2021/06/09 11:42:26;;;;;;;;;;;;;;;27.87;45.07;100941.78;5085183;28;20036;-75
2021/06/09 11:44:52;;;;;;;5.60;4.80;;;;;;;27.80;45.70;100932.97;5081223;28;19916;-75
2021/06/09 11:47:28;;;;;;;5.65;4.70;;;;;;;27.84;45.63;100937.69;5073810;28;20301;-75
2021/06/09 11:50:15;;;;;;;6.03;5.43;;;;;;;27.99;45.74;100936.19;5078606;28;20024;-75
2021/06/09 11:53:12;;;;;;;5.85;5.20;;;;;;;27.81;48.40;100929.97;5093201;28;20105;-75
2021/06/09 11:55:42;;;;;;;5.35;4.85;;;;;;;27.79;45.72;100920.44;5074956;28;20033;-76
2021/06/09 11:58:14;;;;;;;6.85;4.90;;;;;;;27.83;45.45;100921.63;5081228;28;20032;-76
2021/06/09 12:01:12;;;;;;;6.18;4.82;;;;;;;28.01;46.23;100906.81;5083385;28;20400;-76
2021/06/09 12:03:39;;;;;;;5.43;4.93;;;;;;;28.13;45.31;100897.41;5082843;28;20040;-76
2021/06/09 12:06:19;;;;;;;6.45;5.05;;;;;;;28.20;44.82;100899.09;5092500;28;20455;-76
2021/06/09 12:08:47;;;;;;;5.22;4.72;;;;;;;28.14;46.32;100896.31;5091553;28;20052;-76
2021/06/09 12:11:13;;;;;;;6.70;4.95;;;;;;;28.01;45.03;100901.38;5091169;28;20165;-76
2021/06/09 12:13:38;;;;;;;5.70;5.10;;;;;;;27.86;45.39;100896.63;5093749;28;20040;-77
2021/06/09 12:16:06;;;;;;;6.72;5.22;;;;;;;27.81;45.28;100897.38;5092316;28;20025;-76
2021/06/09 12:18:31;;;;;;;4.93;4.38;;;;;;;27.81;45.04;100888.41;5082345;28;20028;-75
2021/06/09 12:21:08;;;;;;;5.00;3.92;;;;;;;27.87;43.30;100876.53;5085171;28;20054;-75
2021/06/09 12:23:34;;;;;;;5.05;4.55;;;;;;;27.85;44.90;100874.06;5092663;28;20028;-75
2021/06/09 12:26:01;;;;;;;4.45;4.03;;;;;;;27.89;44.33;100871.69;5093028;28;20119;-75
2021/06/09 12:28:26;;;;;;;5.68;4.22;;;;;;;27.91;44.10;100870.34;5083683;28;20059;-75
2021/06/09 12:30:55;;;;;;;4.38;3.97;;;;;;;27.86;43.72;100872.97;5091400;28;20052;-76
2021/06/09 12:33:32;;;;;;;5.63;4.25;;;;;;;27.98;42.95;100867.38;5083484;28;20036;-75
2021/06/09 12:35:57;;;;;;;4.43;4.00;;;;;;;28.01;45.03;100869.59;5093197;28;20196;-75
2021/06/09 12:38:27;;;;;;;4.97;4.30;;;;;;;28.03;44.16;100874.75;5083536;28;20058;-75
2021/06/09 12:40:53;;;;;;;4.50;4.10;;;;;;;27.74;44.50;100883.16;5088109;28;20123;-76
2021/06/09 12:43:23;;;;;;;4.60;4.20;;;;;;;27.67;45.78;100877.13;5080214;28;20110;-75
2021/06/09 12:45:49;;;;;;;4.50;4.07;;;;;;;27.66;46.00;100868.16;5092315;28;20451;-75
2021/06/09 12:48:17;;;;;;;4.75;4.25;;;;;;;27.67;45.84;100864.38;5076884;28;20040;-75
2021/06/09 12:50:47;;;;;;;4.63;4.20;;;;;;;27.57;45.15;100860.75;5079779;28;20028;-75
2021/06/09 12:53:21;;;;;;;4.32;3.75;;;;;;;27.59;44.56;100859.41;5087502;28;20039;-75
2021/06/09 12:55:49;;;;;;;4.65;4.13;;;;;;;27.48;44.69;100853.06;5072326;28;20032;-75
2021/06/09 12:58:20;;;;;;;4.30;3.90;;;;;;;27.64;45.65;100848.59;5086341;28;20024;-75
2021/06/09 13:00:50;;;;;;;6.10;4.60;;;;;;;27.52;46.00;100851.47;5091900;28;20079;-75
2021/06/09 13:03:27;;;;;;;4.38;3.97;;;;;;;27.52;48.60;100850.63;5091945;28;20404;-75
2021/06/09 13:05:56;;;;;;;4.72;4.20;;;;;;;27.36;44.69;100846.94;5085550;28;20040;-75
2021/06/09 13:08:46;;;;;;;5.38;4.05;;;;;;;27.27;43.64;100837.63;5093061;28;20119;-75
2021/06/09 13:11:17;;;;;;;4.13;3.55;;;;;;;27.46;44.69;100840.78;5093082;28;20028;-75
2021/06/09 13:13:46;;;;;;;5.22;4.20;;;;;;;27.66;45.38;100851.88;5092536;28;20028;-77
2021/06/09 13:16:19;;;;;;;4.60;4.10;;;;;;;27.66;43.97;100851.88;5091037;28;20036;-76
2021/06/09 13:18:50;;;;;;;4.80;4.30;;;;;;;27.57;44.15;100858.84;5081154;28;20088;-75
2021/06/09 13:21:25;;;;;;;3.60;3.30;;;;;;;27.38;43.95;100858.38;5086795;28;20043;-75
2021/06/09 13:23:55;;;;;;;4.13;3.63;;;;;;;27.18;44.12;100853.53;5079436;28;20029;-75
2021/06/09 13:26:21;;;;;;;4.25;3.70;;;;;;;27.38;44.34;100860.28;5086760;28;20111;-75
2021/06/09 13:28:47;;;;;;;4.10;3.55;;;;;;;27.39;45.66;100856.47;5091480;28;20564;-75
2021/06/09 13:31:13;;;;;;;4.30;3.53;;;;;;;27.40;44.26;100855.41;5091291;28;20119;-75
2021/06/09 13:33:42;;;;;;;4.18;3.55;;;;;;;27.29;42.63;100855.31;5075071;28;20404;-75
2021/06/09 13:36:09;;;;;;;4.53;3.47;;;;;;;27.27;46.04;100859.38;5090618;28;20167;-75
2021/06/09 13:38:40;;;;;;;3.97;3.58;;;;;;;27.36;44.59;100851.56;5091314;28;20028;-75
2021/06/09 13:41:08;;;;;;;4.03;3.58;;;;;;;27.42;42.83;100842.41;5089485;28;20519;-75
2021/06/09 13:43:34;;;;;;;4.18;3.78;;;;;;;27.26;42.81;100841.41;5080721;28;20123;-76
2021/06/09 13:46:03;;;;;;;3.67;3.30;;;;;;;27.33;42.38;100837.41;5083864;28;20032;-75
2021/06/09 13:48:32;;;;;;;3.50;3.20;;;;;;;27.41;42.05;100830.72;5074965;28;20040;-76
2021/06/09 13:50:57;;;;;;;3.53;3.20;;;;;;;27.42;45.31;100832.34;5090738;28;20028;-75
2021/06/09 13:53:22;;;;;;;3.42;3.10;;;;;;;27.42;44.89;100836.97;5090639;28;20489;-75
2021/06/09 13:55:48;;;;;;;4.10;3.38;;;;;;;27.62;43.85;100823.56;5070804;28;20564;-75
2021/06/09 13:58:29;;;;;;;3.25;2.95;;;;;;;27.82;43.04;100813.97;5085067;28;20130;-75
2021/06/09 14:00:57;;;;;;;4.13;3.72;;;;;;;27.68;44.10;100821.72;5090579;28;20059;-75
2021/06/09 14:03:26;;;;;;;5.03;3.67;;;;;;;27.47;46.31;100809.84;5091040;28;20516;-76
2021/06/09 14:05:51;;;;;;;5.75;4.28;;;;;;;27.63;43.64;100813.53;5074989;28;20753;-75
2021/06/09 14:08:18;;;;;;;4.07;3.60;;;;;;;27.54;43.67;100822.16;5090495;28;20078;-75
2021/06/09 14:10:47;;;;;;;3.78;3.45;;;;;;;27.42;42.62;100818.78;5090617;28;20562;-76
2021/06/09 14:13:18;;;;;;;4.15;2.95;;;;;;;27.48;43.93;100817.75;5090825;28;20031;-75